sensor_id;sensor_type;location;lat;lon;timestamp;pressure;altitude;pressure_sealevel;temperature;humidity
3960;BME280;1994;48.640;8.894;2022-10-18T00:02:16;97072.16;;;15.38;90.13
3960;BME280;1994;48.640;8.894;2022-10-18T00:04:45;97069.56;;;15.38;90.44
3960;BME280;1994;48.640;8.894;2022-10-18T00:07:10;97071.84;;;15.34;90.47
3960;BME280;1994;48.640;8.894;2022-10-18T00:09:36;97072.63;;;15.35;90.13
3960;BME280;1994;48.640;8.894;2022-10-18T00:12:02;97066.75;;;15.28;90.34
3960;BME280;1994;48.640;8.894;2022-10-18T00:14:28;97075.63;;;15.27;90.44
3960;BME280;1994;48.640;8.894;2022-10-18T00:16:54;97076.28;;;15.34;90.19
3960;BME280;1994;48.640;8.894;2022-10-18T00:19:20;97070.41;;;15.27;90.16
3960;BME280;1994;48.640;8.894;2022-10-18T00:21:48;97069.78;;;15.20;90.26
3960;BME280;1994;48.640;8.894;2022-10-18T00:24:14;97066.00;;;15.11;90.87
3960;BME280;1994;48.640;8.894;2022-10-18T00:26:39;97071.69;;;15.08;90.94
3960;BME280;1994;48.640;8.894;2022-10-18T00:29:05;97070.91;;;15.07;90.41
3960;BME280;1994;48.640;8.894;2022-10-18T00:31:36;97073.75;;;15.06;90.85
3960;BME280;1994;48.640;8.894;2022-10-18T00:34:10;97070.09;;;15.07;90.70
3960;BME280;1994;48.640;8.894;2022-10-18T00:36:36;97064.41;;;15.10;90.38
3960;BME280;1994;48.640;8.894;2022-10-18T00:39:05;97060.94;;;15.04;90.59
3960;BME280;1994;48.640;8.894;2022-10-18T00:41:34;97072.16;;;15.05;90.55
3960;BME280;1994;48.640;8.894;2022-10-18T00:44:06;97069.41;;;14.95;90.96
3960;BME280;1994;48.640;8.894;2022-10-18T00:46:35;97060.94;;;14.88;91.17
3960;BME280;1994;48.640;8.894;2022-10-18T00:49:11;97065.84;;;15.01;90.61
3960;BME280;1994;48.640;8.894;2022-10-18T00:52:10;97079.59;;;14.96;91.21
3960;BME280;1994;48.640;8.894;2022-10-18T00:54:41;97076.69;;;14.93;91.10
3960;BME280;1994;48.640;8.894;2022-10-18T00:57:08;97083.72;;;14.92;91.26
3960;BME280;1994;48.640;8.894;2022-10-18T00:59:35;97073.59;;;14.96;90.76
3960;BME280;1994;48.640;8.894;2022-10-18T01:02:01;97075.16;;;14.80;91.69
3960;BME280;1994;48.640;8.894;2022-10-18T01:04:27;97080.06;;;14.77;92.05
3960;BME280;1994;48.640;8.894;2022-10-18T01:15:38;97064.25;;;15.00;90.51
3960;BME280;1994;48.640;8.894;2022-10-18T01:18:40;97070.75;;;14.97;90.74
3960;BME280;1994;48.640;8.894;2022-10-18T01:31:49;97071.22;;;15.11;89.67
3960;BME280;1994;48.640;8.894;2022-10-18T01:34:08;97062.84;;;15.09;89.30
3960;BME280;1994;48.640;8.894;2022-10-18T01:36:41;97063.38;;;15.11;89.62
3960;BME280;1994;48.640;8.894;2022-10-18T01:39:14;97062.34;;;15.12;89.78
3960;BME280;1994;48.640;8.894;2022-10-18T01:41:45;97067.22;;;15.25;89.05
3960;BME280;1994;48.640;8.894;2022-10-18T01:44:23;97067.72;;;15.22;88.83
3960;BME280;1994;48.640;8.894;2022-10-18T01:46:53;97065.03;;;15.17;88.94
3960;BME280;1994;48.640;8.894;2022-10-18T01:49:20;97061.41;;;15.18;89.20
3960;BME280;1994;48.640;8.894;2022-10-18T01:51:46;97064.69;;;15.30;88.51
3960;BME280;1994;48.640;8.894;2022-10-18T01:54:17;97066.31;;;15.31;88.38
3960;BME280;1994;48.640;8.894;2022-10-18T02:00:15;97068.13;;;15.47;87.49
3960;BME280;1994;48.640;8.894;2022-10-18T02:08:37;97068.66;;;15.49;87.37
3960;BME280;1994;48.640;8.894;2022-10-18T02:11:06;97068.81;;;15.59;86.74
3960;BME280;1994;48.640;8.894;2022-10-18T02:13:45;97060.91;;;15.54;86.99
3960;BME280;1994;48.640;8.894;2022-10-18T02:16:22;97064.34;;;15.38;87.75
3960;BME280;1994;48.640;8.894;2022-10-18T02:19:10;97060.16;;;15.37;88.26
3960;BME280;1994;48.640;8.894;2022-10-18T02:21:38;97055.41;;;15.34;88.13
3960;BME280;1994;48.640;8.894;2022-10-18T02:24:05;97064.09;;;15.39;88.00
3960;BME280;1994;48.640;8.894;2022-10-18T02:26:31;97056.97;;;15.35;87.65
3960;BME280;1994;48.640;8.894;2022-10-18T02:28:57;97055.97;;;15.36;87.70
3960;BME280;1994;48.640;8.894;2022-10-18T02:31:42;97048.75;;;15.43;87.66
3960;BME280;1994;48.640;8.894;2022-10-18T02:34:19;97043.03;;;15.46;87.02
3960;BME280;1994;48.640;8.894;2022-10-18T02:36:54;97040.97;;;15.48;86.85
3960;BME280;1994;48.640;8.894;2022-10-18T02:39:28;97028.63;;;15.43;86.79
3960;BME280;1994;48.640;8.894;2022-10-18T02:41:56;97033.06;;;15.43;87.08
3960;BME280;1994;48.640;8.894;2022-10-18T02:44:22;97041.16;;;15.41;87.16
3960;BME280;1994;48.640;8.894;2022-10-18T02:46:49;97043.69;;;15.36;87.47
3960;BME280;1994;48.640;8.894;2022-10-18T02:49:15;97048.13;;;15.36;87.54
3960;BME280;1994;48.640;8.894;2022-10-18T02:51:44;97048.13;;;15.36;87.39
3960;BME280;1994;48.640;8.894;2022-10-18T02:54:09;97049.53;;;15.27;87.62
3960;BME280;1994;48.640;8.894;2022-10-18T02:56:35;97033.50;;;15.18;88.33
3960;BME280;1994;48.640;8.894;2022-10-18T02:59:04;97038.13;;;15.16;88.37
3960;BME280;1994;48.640;8.894;2022-10-18T03:01:33;97037.91;;;15.18;88.21
3960;BME280;1994;48.640;8.894;2022-10-18T03:03:59;97035.16;;;15.08;88.69
3960;BME280;1994;48.640;8.894;2022-10-18T03:06:30;97044.63;;;15.14;88.62
3960;BME280;1994;48.640;8.894;2022-10-18T03:08:56;97043.13;;;15.18;88.19
3960;BME280;1994;48.640;8.894;2022-10-18T03:11:22;97035.13;;;15.24;88.34
3960;BME280;1994;48.640;8.894;2022-10-18T03:13:48;97040.66;;;15.28;87.71
3960;BME280;1994;48.640;8.894;2022-10-18T03:16:16;97043.69;;;15.20;87.81
3960;BME280;1994;48.640;8.894;2022-10-18T03:18:42;97042.09;;;15.19;87.54
3960;BME280;1994;48.640;8.894;2022-10-18T03:21:08;97039.09;;;15.27;87.24
3960;BME280;1994;48.640;8.894;2022-10-18T03:23:34;97040.59;;;15.23;87.07
3960;BME280;1994;48.640;8.894;2022-10-18T03:26:00;97038.78;;;15.23;87.47
3960;BME280;1994;48.640;8.894;2022-10-18T03:28:29;97041.47;;;15.12;88.15
3960;BME280;1994;48.640;8.894;2022-10-18T03:31:02;97036.09;;;15.02;88.19
3960;BME280;1994;48.640;8.894;2022-10-18T03:33:30;97043.38;;;15.00;88.07
3960;BME280;1994;48.640;8.894;2022-10-18T03:35:56;97036.59;;;14.99;88.59
3960;BME280;1994;48.640;8.894;2022-10-18T03:38:24;97033.75;;;14.84;89.20
3960;BME280;1994;48.640;8.894;2022-10-18T03:40:50;97038.75;;;14.85;89.02
3960;BME280;1994;48.640;8.894;2022-10-18T03:43:17;97036.91;;;14.86;89.06
3960;BME280;1994;48.640;8.894;2022-10-18T03:45:48;97039.44;;;14.81;89.65
3960;BME280;1994;48.640;8.894;2022-10-18T03:48:14;97035.63;;;14.88;88.92
3960;BME280;1994;48.640;8.894;2022-10-18T03:50:43;97036.53;;;14.94;88.71
3960;BME280;1994;48.640;8.894;2022-10-18T03:53:09;97043.22;;;14.90;88.79
3960;BME280;1994;48.640;8.894;2022-10-18T03:55:37;97033.28;;;14.87;88.64
3960;BME280;1994;48.640;8.894;2022-10-18T03:58:06;97044.81;;;14.91;88.63
3960;BME280;1994;48.640;8.894;2022-10-18T04:00:33;97041.16;;;14.92;88.49
3960;BME280;1994;48.640;8.894;2022-10-18T04:02:58;97043.84;;;14.97;88.41
3960;BME280;1994;48.640;8.894;2022-10-18T04:05:24;97037.06;;;14.96;88.12
3960;BME280;1994;48.640;8.894;2022-10-18T04:07:55;97037.28;;;14.94;88.15
3960;BME280;1994;48.640;8.894;2022-10-18T04:10:21;97044.34;;;14.94;88.25
3960;BME280;1994;48.640;8.894;2022-10-18T04:12:47;97038.81;;;14.90;88.53
3960;BME280;1994;48.640;8.894;2022-10-18T04:15:13;97042.91;;;14.86;88.76
3960;BME280;1994;48.640;8.894;2022-10-18T04:17:39;97045.28;;;14.88;88.77
3960;BME280;1994;48.640;8.894;2022-10-18T04:20:06;97057.31;;;14.89;88.63
3960;BME280;1994;48.640;8.894;2022-10-18T04:22:32;97053.59;;;14.85;88.89
3960;BME280;1994;48.640;8.894;2022-10-18T04:24:58;97052.09;;;14.89;88.64
3960;BME280;1994;48.640;8.894;2022-10-18T04:27:24;97058.03;;;14.84;88.88
3960;BME280;1994;48.640;8.894;2022-10-18T04:29:50;97055.25;;;14.91;88.56
3960;BME280;1994;48.640;8.894;2022-10-18T04:32:16;97058.25;;;14.83;89.04
3960;BME280;1994;48.640;8.894;2022-10-18T04:34:42;97063.31;;;14.73;89.51
3960;BME280;1994;48.640;8.894;2022-10-18T04:37:07;97056.34;;;14.62;90.79
3960;BME280;1994;48.640;8.894;2022-10-18T04:39:33;97055.41;;;14.68;90.63
3960;BME280;1994;48.640;8.894;2022-10-18T04:42:02;97055.84;;;14.65;90.30
3960;BME280;1994;48.640;8.894;2022-10-18T04:44:28;97060.44;;;14.58;90.90
3960;BME280;1994;48.640;8.894;2022-10-18T04:46:53;97061.56;;;14.62;90.98
3960;BME280;1994;48.640;8.894;2022-10-18T04:49:19;97071.00;;;14.51;91.29
3960;BME280;1994;48.640;8.894;2022-10-18T04:51:45;97067.72;;;14.56;91.10
3960;BME280;1994;48.640;8.894;2022-10-18T04:54:11;97070.22;;;14.51;91.30
3960;BME280;1994;48.640;8.894;2022-10-18T04:56:43;97060.13;;;14.54;91.16
3960;BME280;1994;48.640;8.894;2022-10-18T04:59:08;97061.88;;;14.49;91.13
3960;BME280;1994;48.640;8.894;2022-10-18T05:01:34;97066.09;;;14.38;92.12
3960;BME280;1994;48.640;8.894;2022-10-18T05:04:00;97062.13;;;14.36;92.44
3960;BME280;1994;48.640;8.894;2022-10-18T05:06:29;97052.34;;;14.43;92.38
3960;BME280;1994;48.640;8.894;2022-10-18T05:08:55;97061.91;;;14.37;92.50
3960;BME280;1994;48.640;8.894;2022-10-18T05:11:20;97047.47;;;14.46;92.15
3960;BME280;1994;48.640;8.894;2022-10-18T05:13:46;97055.53;;;14.45;92.29
3960;BME280;1994;48.640;8.894;2022-10-18T05:16:12;97048.13;;;14.53;91.85
3960;BME280;1994;48.640;8.894;2022-10-18T05:18:38;97045.28;;;14.55;91.65
3960;BME280;1994;48.640;8.894;2022-10-18T05:21:04;97049.56;;;14.61;91.71
3960;BME280;1994;48.640;8.894;2022-10-18T05:23:30;97052.56;;;14.69;91.23
3960;BME280;1994;48.640;8.894;2022-10-18T05:26:01;97051.94;;;14.79;90.77
3960;BME280;1994;48.640;8.894;2022-10-18T05:28:31;97058.81;;;14.85;90.12
3960;BME280;1994;48.640;8.894;2022-10-18T05:31:09;97051.59;;;14.92;89.85
3960;BME280;1994;48.640;8.894;2022-10-18T05:33:36;97052.72;;;14.96;89.73
3960;BME280;1994;48.640;8.894;2022-10-18T05:36:01;97052.72;;;14.96;89.68
3960;BME280;1994;48.640;8.894;2022-10-18T05:38:30;97048.28;;;14.96;89.78
3960;BME280;1994;48.640;8.894;2022-10-18T05:41:02;97050.69;;;14.98;89.41
3960;BME280;1994;48.640;8.894;2022-10-18T05:43:28;97061.56;;;14.95;89.23
3960;BME280;1994;48.640;8.894;2022-10-18T05:45:54;97054.84;;;14.99;89.08
3960;BME280;1994;48.640;8.894;2022-10-18T05:48:20;97055.41;;;15.01;88.88
3960;BME280;1994;48.640;8.894;2022-10-18T05:50:46;97050.81;;;15.08;89.50
3960;BME280;1994;48.640;8.894;2022-10-18T05:53:12;97053.03;;;15.16;89.17
3960;BME280;1994;48.640;8.894;2022-10-18T05:55:37;97056.97;;;15.18;88.25
3960;BME280;1994;48.640;8.894;2022-10-18T05:58:03;97063.78;;;15.19;88.22
3960;BME280;1994;48.640;8.894;2022-10-18T06:00:30;97054.13;;;15.20;88.25
3960;BME280;1994;48.640;8.894;2022-10-18T06:03:01;97054.66;;;15.22;87.66
3960;BME280;1994;48.640;8.894;2022-10-18T06:05:27;97056.75;;;15.20;87.81
3960;BME280;1994;48.640;8.894;2022-10-18T06:07:52;97058.84;;;15.23;88.25
3960;BME280;1994;48.640;8.894;2022-10-18T06:10:18;97049.53;;;15.27;87.79
3960;BME280;1994;48.640;8.894;2022-10-18T06:12:44;97063.44;;;15.32;88.26
3960;BME280;1994;48.640;8.894;2022-10-18T06:15:10;97057.78;;;15.35;88.28
3960;BME280;1994;48.640;8.894;2022-10-18T06:17:36;97064.41;;;15.43;88.53
3960;BME280;1994;48.640;8.894;2022-10-18T06:20:02;97058.22;;;15.49;88.02
3960;BME280;1994;48.640;8.894;2022-10-18T06:22:28;97067.69;;;15.55;87.95
3960;BME280;1994;48.640;8.894;2022-10-18T06:24:54;97073.06;;;15.65;87.68
3960;BME280;1994;48.640;8.894;2022-10-18T06:27:19;97076.81;;;15.74;87.49
3960;BME280;1994;48.640;8.894;2022-10-18T06:29:48;97084.25;;;15.82;87.04
3960;BME280;1994;48.640;8.894;2022-10-18T06:32:14;97081.19;;;15.90;86.66
3960;BME280;1994;48.640;8.894;2022-10-18T06:34:40;97084.13;;;15.93;86.29
3960;BME280;1994;48.640;8.894;2022-10-18T06:37:06;97074.03;;;16.02;85.96
3960;BME280;1994;48.640;8.894;2022-10-18T06:39:32;97074.81;;;16.02;85.64
3960;BME280;1994;48.640;8.894;2022-10-18T06:41:58;97081.31;;;16.00;86.26
3960;BME280;1994;48.640;8.894;2022-10-18T06:44:30;97074.03;;;16.02;86.06
3960;BME280;1994;48.640;8.894;2022-10-18T06:46:56;97075.63;;;16.03;85.93
3960;BME280;1994;48.640;8.894;2022-10-18T06:49:25;97067.22;;;16.01;86.52
3960;BME280;1994;48.640;8.894;2022-10-18T06:51:53;97068.56;;;16.03;86.14
3960;BME280;1994;48.640;8.894;2022-10-18T06:54:21;97068.31;;;16.05;86.04
3960;BME280;1994;48.640;8.894;2022-10-18T06:56:47;97071.16;;;16.03;86.09
3960;BME280;1994;48.640;8.894;2022-10-18T06:59:13;97073.53;;;16.05;86.08
3960;BME280;1994;48.640;8.894;2022-10-18T07:01:39;97080.34;;;16.06;86.12
3960;BME280;1994;48.640;8.894;2022-10-18T07:04:05;97078.59;;;16.11;86.47
3960;BME280;1994;48.640;8.894;2022-10-18T07:06:31;97085.50;;;16.22;86.37
3960;BME280;1994;48.640;8.894;2022-10-18T07:08:56;97082.66;;;16.24;86.18
3960;BME280;1994;48.640;8.894;2022-10-18T07:11:25;97090.00;;;16.27;86.25
3960;BME280;1994;48.640;8.894;2022-10-18T07:13:58;97094.56;;;16.15;87.31
3960;BME280;1994;48.640;8.894;2022-10-18T07:16:33;97095.38;;;16.15;87.16
3960;BME280;1994;48.640;8.894;2022-10-18T07:19:19;97099.19;;;16.08;87.12
3960;BME280;1994;48.640;8.894;2022-10-18T07:21:45;97102.22;;;16.00;87.63
3960;BME280;1994;48.640;8.894;2022-10-18T07:24:11;97097.06;;;16.05;87.48
3960;BME280;1994;48.640;8.894;2022-10-18T07:26:37;97091.00;;;15.99;87.69
3960;BME280;1994;48.640;8.894;2022-10-18T07:29:09;97092.56;;;16.00;87.94
3960;BME280;1994;48.640;8.894;2022-10-18T07:31:41;97084.16;;;15.98;88.39
3960;BME280;1994;48.640;8.894;2022-10-18T07:34:12;97079.28;;;16.02;88.68
3960;BME280;1994;48.640;8.894;2022-10-18T07:36:41;97093.25;;;15.91;88.85
3960;BME280;1994;48.640;8.894;2022-10-18T07:39:07;97097.13;;;16.10;88.84
3960;BME280;1994;48.640;8.894;2022-10-18T07:41:36;97094.03;;;16.13;87.89
3960;BME280;1994;48.640;8.894;2022-10-18T07:44:03;97101.97;;;16.23;87.54
3960;BME280;1994;48.640;8.894;2022-10-18T07:46:32;97103.19;;;16.37;87.57
3960;BME280;1994;48.640;8.894;2022-10-18T07:48:58;97105.41;;;16.45;86.96
3960;BME280;1994;48.640;8.894;2022-10-18T07:51:25;97102.16;;;16.59;86.07
3960;BME280;1994;48.640;8.894;2022-10-18T07:53:51;97103.44;;;16.57;85.83
3960;BME280;1994;48.640;8.894;2022-10-18T07:56:21;97098.78;;;16.64;85.80
3960;BME280;1994;48.640;8.894;2022-10-18T07:58:52;97106.69;;;16.69;85.69
3960;BME280;1994;48.640;8.894;2022-10-18T08:01:20;97105.41;;;17.03;84.32
3960;BME280;1994;48.640;8.894;2022-10-18T08:03:46;97117.69;;;17.34;82.46
3960;BME280;1994;48.640;8.894;2022-10-18T08:06:15;97118.13;;;17.52;81.29
3960;BME280;1994;48.640;8.894;2022-10-18T08:08:41;97121.53;;;17.58;80.97
3960;BME280;1994;48.640;8.894;2022-10-18T08:11:17;97123.13;;;17.59;81.06
3960;BME280;1994;48.640;8.894;2022-10-18T08:13:43;97130.97;;;17.59;81.14
3960;BME280;1994;48.640;8.894;2022-10-18T08:16:19;97125.28;;;17.67;81.02
3960;BME280;1994;48.640;8.894;2022-10-18T08:18:45;97128.88;;;17.56;81.27
3960;BME280;1994;48.640;8.894;2022-10-18T08:21:13;97124.09;;;17.43;82.41
3960;BME280;1994;48.640;8.894;2022-10-18T08:23:49;97125.66;;;17.44;82.84
3960;BME280;1994;48.640;8.894;2022-10-18T08:26:18;97120.00;;;17.62;82.69
3960;BME280;1994;48.640;8.894;2022-10-18T08:28:44;97123.03;;;17.85;81.77
3960;BME280;1994;48.640;8.894;2022-10-18T08:31:12;97135.25;;;18.26;80.74
3960;BME280;1994;48.640;8.894;2022-10-18T08:33:39;97126.69;;;18.41;79.75
3960;BME280;1994;48.640;8.894;2022-10-18T08:36:08;97124.69;;;18.88;78.40
3960;BME280;1994;48.640;8.894;2022-10-18T08:38:36;97123.44;;;20.39;73.28
3960;BME280;1994;48.640;8.894;2022-10-18T08:44:06;97123.34;;;23.46;60.38
3960;BME280;1994;48.640;8.894;2022-10-18T08:46:41;97124.31;;;23.50;60.21
3960;BME280;1994;48.640;8.894;2022-10-18T08:49:25;97125.03;;;23.69;57.70
3960;BME280;1994;48.640;8.894;2022-10-18T08:51:55;97132.34;;;23.90;57.64
3960;BME280;1994;48.640;8.894;2022-10-18T08:54:38;97128.19;;;24.79;56.00
3960;BME280;1994;48.640;8.894;2022-10-18T08:57:14;97126.53;;;25.49;53.85
3960;BME280;1994;48.640;8.894;2022-10-18T08:59:42;97133.50;;;25.67;52.68
3960;BME280;1994;48.640;8.894;2022-10-18T09:05:02;97130.09;;;26.53;49.70
3960;BME280;1994;48.640;8.894;2022-10-18T09:08:00;97137.88;;;26.41;50.16
3960;BME280;1994;48.640;8.894;2022-10-18T09:16:27;97131.63;;;26.37;50.89
3960;BME280;1994;48.640;8.894;2022-10-18T09:22:12;97130.34;;;25.65;51.18
3960;BME280;1994;48.640;8.894;2022-10-18T09:24:43;97130.72;;;24.84;54.83
3960;BME280;1994;48.640;8.894;2022-10-18T09:27:16;97132.34;;;25.29;53.96
3960;BME280;1994;48.640;8.894;2022-10-18T09:35:43;97134.91;;;27.87;46.67
3960;BME280;1994;48.640;8.894;2022-10-18T09:38:17;97129.50;;;28.04;47.39
3960;BME280;1994;48.640;8.894;2022-10-18T09:40:55;97137.56;;;29.03;45.08
3960;BME280;1994;48.640;8.894;2022-10-18T09:43:36;97131.28;;;29.40;43.21
3960;BME280;1994;48.640;8.894;2022-10-18T09:46:05;97132.78;;;28.67;44.77
3960;BME280;1994;48.640;8.894;2022-10-18T09:49:02;97130.09;;;28.47;45.35
3960;BME280;1994;48.640;8.894;2022-10-18T09:51:35;97137.00;;;27.64;46.63
3960;BME280;1994;48.640;8.894;2022-10-18T09:54:22;97130.63;;;28.03;46.68
3960;BME280;1994;48.640;8.894;2022-10-18T09:57:15;97132.06;;;29.40;44.33
3960;BME280;1994;48.640;8.894;2022-10-18T09:59:46;97133.59;;;29.29;43.58
3960;BME280;1994;48.640;8.894;2022-10-18T10:02:19;97132.47;;;29.63;43.12
3960;BME280;1994;48.640;8.894;2022-10-18T10:04:47;97135.22;;;29.87;42.87
3960;BME280;1994;48.640;8.894;2022-10-18T10:07:33;97137.69;;;30.04;43.53
3960;BME280;1994;48.640;8.894;2022-10-18T10:10:24;97141.97;;;29.40;43.45
3960;BME280;1994;48.640;8.894;2022-10-18T10:13:15;97138.88;;;29.82;41.68
3960;BME280;1994;48.640;8.894;2022-10-18T10:15:55;97130.44;;;28.37;45.17
3960;BME280;1994;48.640;8.894;2022-10-18T10:18:23;97131.19;;;28.17;46.26
3960;BME280;1994;48.640;8.894;2022-10-18T10:21:02;97134.81;;;28.50;45.18
3960;BME280;1994;48.640;8.894;2022-10-18T10:23:43;97142.00;;;27.66;46.50
3960;BME280;1994;48.640;8.894;2022-10-18T10:28:53;97140.03;;;28.67;45.30
3960;BME280;1994;48.640;8.894;2022-10-18T10:31:29;97130.00;;;27.34;47.82
3960;BME280;1994;48.640;8.894;2022-10-18T10:36:50;97136.94;;;25.98;50.43
3960;BME280;1994;48.640;8.894;2022-10-18T10:39:22;97141.75;;;26.91;48.48
3960;BME280;1994;48.640;8.894;2022-10-18T10:42:01;97147.69;;;27.22;46.64
3960;BME280;1994;48.640;8.894;2022-10-18T10:44:31;97137.28;;;28.96;41.94
3960;BME280;1994;48.640;8.894;2022-10-18T10:47:01;97136.28;;;29.09;41.34
3960;BME280;1994;48.640;8.894;2022-10-18T10:49:45;97153.72;;;30.04;38.93
3960;BME280;1994;48.640;8.894;2022-10-18T10:52:23;97146.66;;;31.07;37.60
3960;BME280;1994;48.640;8.894;2022-10-18T10:54:53;97143.69;;;31.52;36.93
3960;BME280;1994;48.640;8.894;2022-10-18T10:57:28;97142.81;;;31.91;35.23
3960;BME280;1994;48.640;8.894;2022-10-18T10:59:57;97130.19;;;32.38;34.45
3960;BME280;1994;48.640;8.894;2022-10-18T11:02:31;97131.78;;;31.22;37.74
3960;BME280;1994;48.640;8.894;2022-10-18T11:05:23;97131.63;;;29.71;38.79
3960;BME280;1994;48.640;8.894;2022-10-18T11:07:54;97128.34;;;29.21;40.31
3960;BME280;1994;48.640;8.894;2022-10-18T11:10:28;97137.94;;;29.34;40.28
3960;BME280;1994;48.640;8.894;2022-10-18T11:15:50;97123.97;;;29.49;39.87
3960;BME280;1994;48.640;8.894;2022-10-18T11:18:28;97115.09;;;30.25;38.86
3960;BME280;1994;48.640;8.894;2022-10-18T11:23:38;97110.75;;;29.20;41.42
3960;BME280;1994;48.640;8.894;2022-10-18T11:31:22;97113.19;;;30.02;39.22
3960;BME280;1994;48.640;8.894;2022-10-18T11:40:34;97112.63;;;30.44;37.28
3960;BME280;1994;48.640;8.894;2022-10-18T11:43:58;97118.63;;;30.77;36.46
3960;BME280;1994;48.640;8.894;2022-10-18T11:58:45;97108.38;;;27.99;42.60
3960;BME280;1994;48.640;8.894;2022-10-18T12:04:21;97106.69;;;27.23;44.10
3960;BME280;1994;48.640;8.894;2022-10-18T12:06:51;97104.50;;;27.25;43.79
3960;BME280;1994;48.640;8.894;2022-10-18T12:09:40;97102.47;;;27.05;44.64
3960;BME280;1994;48.640;8.894;2022-10-18T12:12:36;97103.25;;;26.80;45.52
3960;BME280;1994;48.640;8.894;2022-10-18T12:15:20;97105.19;;;26.23;46.35
3960;BME280;1994;48.640;8.894;2022-10-18T12:17:58;97092.75;;;26.02;47.00
3960;BME280;1994;48.640;8.894;2022-10-18T12:20:52;97094.78;;;25.66;48.35
3960;BME280;1994;48.640;8.894;2022-10-18T12:23:43;97090.88;;;25.63;48.50
3960;BME280;1994;48.640;8.894;2022-10-18T12:26:10;97093.91;;;25.48;49.76
3960;BME280;1994;48.640;8.894;2022-10-18T12:29:09;97087.59;;;25.36;49.68
3960;BME280;1994;48.640;8.894;2022-10-18T12:31:52;97088.59;;;25.79;48.55
3960;BME280;1994;48.640;8.894;2022-10-18T12:34:32;97093.41;;;26.07;49.00
3960;BME280;1994;48.640;8.894;2022-10-18T12:39:55;97090.41;;;26.99;46.24
3960;BME280;1994;48.640;8.894;2022-10-18T12:42:27;97091.66;;;27.10;45.68
3960;BME280;1994;48.640;8.894;2022-10-18T12:45:28;97081.97;;;27.14;45.73
3960;BME280;1994;48.640;8.894;2022-10-18T12:48:06;97086.91;;;27.58;44.94
3960;BME280;1994;48.640;8.894;2022-10-18T12:50:41;97087.00;;;27.78;43.66
3960;BME280;1994;48.640;8.894;2022-10-18T12:53:19;97092.41;;;27.53;44.26
3960;BME280;1994;48.640;8.894;2022-10-18T12:55:52;97085.91;;;27.71;44.31
3960;BME280;1994;48.640;8.894;2022-10-18T12:58:28;97087.19;;;27.65;44.22
3960;BME280;1994;48.640;8.894;2022-10-18T13:01:04;97101.97;;;27.37;43.82
3960;BME280;1994;48.640;8.894;2022-10-18T13:03:55;97099.34;;;27.03;44.64
3960;BME280;1994;48.640;8.894;2022-10-18T13:06:22;97094.47;;;26.54;45.77
3960;BME280;1994;48.640;8.894;2022-10-18T13:09:15;97087.13;;;25.95;47.72
3960;BME280;1994;48.640;8.894;2022-10-18T13:11:42;97085.56;;;25.94;47.72
3960;BME280;1994;48.640;8.894;2022-10-18T13:20:42;97082.88;;;25.55;49.10
3960;BME280;1994;48.640;8.894;2022-10-18T13:24:05;97086.00;;;25.57;48.09
3960;BME280;1994;48.640;8.894;2022-10-18T13:27:23;97084.53;;;24.98;50.56
3960;BME280;1994;48.640;8.894;2022-10-18T13:30:24;97086.59;;;24.66;51.73
3960;BME280;1994;48.640;8.894;2022-10-18T13:33:30;97091.34;;;24.42;52.60
3960;BME280;1994;48.640;8.894;2022-10-18T13:42:16;97073.53;;;24.07;54.38
3960;BME280;1994;48.640;8.894;2022-10-18T13:44:35;97079.44;;;24.04;54.80
3960;BME280;1994;48.640;8.894;2022-10-18T13:58:45;97084.31;;;23.70;55.94
3960;BME280;1994;48.640;8.894;2022-10-18T14:04:22;97092.81;;;23.67;56.58
3960;BME280;1994;48.640;8.894;2022-10-18T14:06:58;97094.63;;;23.53;56.69
3960;BME280;1994;48.640;8.894;2022-10-18T14:09:43;97086.03;;;23.61;56.60
3960;BME280;1994;48.640;8.894;2022-10-18T14:12:38;97095.22;;;23.50;56.61
3960;BME280;1994;48.640;8.894;2022-10-18T14:15:31;97093.25;;;23.42;57.05
3960;BME280;1994;48.640;8.894;2022-10-18T14:18:14;97100.13;;;23.43;56.66
3960;BME280;1994;48.640;8.894;2022-10-18T14:20:50;97102.09;;;23.51;55.87
3960;BME280;1994;48.640;8.894;2022-10-18T14:23:26;97104.34;;;23.44;56.76
3960;BME280;1994;48.640;8.894;2022-10-18T14:26:15;97105.81;;;23.50;56.55
3960;BME280;1994;48.640;8.894;2022-10-18T14:28:42;97103.25;;;23.45;56.86
3960;BME280;1994;48.640;8.894;2022-10-18T14:31:18;97102.19;;;23.46;56.86
3960;BME280;1994;48.640;8.894;2022-10-18T14:33:52;97097.88;;;23.50;56.19
3960;BME280;1994;48.640;8.894;2022-10-18T14:39:01;97098.97;;;23.62;55.82
3960;BME280;1994;48.640;8.894;2022-10-18T14:41:34;97101.34;;;23.64;55.21
3960;BME280;1994;48.640;8.894;2022-10-18T14:44:25;97096.16;;;23.59;55.77
3960;BME280;1994;48.640;8.894;2022-10-18T14:47:01;97091.88;;;23.44;56.27
3960;BME280;1994;48.640;8.894;2022-10-18T14:49:31;97105.00;;;23.36;56.18
3960;BME280;1994;48.640;8.894;2022-10-18T14:51:59;97098.09;;;23.21;56.91
3960;BME280;1994;48.640;8.894;2022-10-18T14:54:32;97105.31;;;23.16;57.23
3960;BME280;1994;48.640;8.894;2022-10-18T14:57:05;97102.91;;;23.01;58.05
3960;BME280;1994;48.640;8.894;2022-10-18T14:59:42;97113.06;;;22.94;58.04
3960;BME280;1994;48.640;8.894;2022-10-18T15:02:16;97111.63;;;22.83;58.95
3960;BME280;1994;48.640;8.894;2022-10-18T15:05:08;97104.75;;;22.82;59.79
3960;BME280;1994;48.640;8.894;2022-10-18T15:07:40;97102.78;;;22.74;60.22
3960;BME280;1994;48.640;8.894;2022-10-18T15:10:22;97098.72;;;22.63;60.33
3960;BME280;1994;48.640;8.894;2022-10-18T15:12:49;97103.06;;;22.54;60.39
3960;BME280;1994;48.640;8.894;2022-10-18T15:15:32;97109.47;;;22.48;60.82
3960;BME280;1994;48.640;8.894;2022-10-18T15:17:59;97109.00;;;22.41;61.02
3960;BME280;1994;48.640;8.894;2022-10-18T15:20:33;97101.88;;;22.23;61.89
3960;BME280;1994;48.640;8.894;2022-10-18T15:23:24;97107.69;;;22.20;62.68
3960;BME280;1994;48.640;8.894;2022-10-18T15:25:58;97107.25;;;22.13;63.50
3960;BME280;1994;48.640;8.894;2022-10-18T15:28:36;97106.34;;;21.99;63.79
3960;BME280;1994;48.640;8.894;2022-10-18T15:31:04;97107.03;;;21.86;65.34
3960;BME280;1994;48.640;8.894;2022-10-18T15:33:32;97109.16;;;21.84;65.55
3960;BME280;1994;48.640;8.894;2022-10-18T15:36:21;97111.31;;;21.82;65.80
3960;BME280;1994;48.640;8.894;2022-10-18T15:38:49;97103.50;;;21.72;65.52
3960;BME280;1994;48.640;8.894;2022-10-18T15:46:56;97097.25;;;21.63;66.79
3960;BME280;1994;48.640;8.894;2022-10-18T15:49:48;97099.34;;;21.61;67.20
3960;BME280;1994;48.640;8.894;2022-10-18T15:52:38;97094.44;;;21.54;68.34
3960;BME280;1994;48.640;8.894;2022-10-18T15:55:49;97102.69;;;21.43;69.07
3960;BME280;1994;48.640;8.894;2022-10-18T15:58:43;97101.69;;;21.39;69.47